Terminal Aerodrome Forecast
Issued by NWS

Home | Current Version | Previous Version | Text Only | Print | Product List | Glossary On
Versions: 1 2 3 4 5 6 7 8 9 10 11 12 13 14 15 16 17 18
000
FTUS43 KDTX 280525
TAFMBS
TAF
KMBS 280525Z 2806/2906 27012KT P6SM OVC025
     FM281600 25007KT P6SM SCT020 BKN200
     FM290100 30007KT P6SM FEW020=

USA.gov is the U.S. government's official web portal to all federal, state and local government web resources and services.